Tofino, Canada
Current Conditions -  °F | °C
As of 5:00 PM on Tuesday 25 Nov 2014 (Local Time) from CYAZ Reporting Station
Light Rain Light Rain  
Wind Chill: 41°   Ceiling: 1200
Heat Index: 45°   Visibility: 4mi
Dew Point: 45°   Wind: 7mph
Humidity: 100%   Direction: 40°NE
Pressure: 30.09"   Gusts: NA
Location:  49.15°N, 125.9°W
Report Text: CYAZ 260100Z 04006KT 4SM -RA BR SCT008 BKN012 BKN018 07/07 A3009 RMK SF3CF2SC2 VRY LGT RA LAST OBS/NEXT 261500UTC SLP190
Loading
Personal Weather Stations






























Interactive Weather Map New forecast layout! Learn more

10-Day Weather Forecast

Advertisements
Track Severe Weather on mobile